createdAt,value
2023-05-22T00:03:40.597Z,58.49
2023-05-22T00:06:09.732Z,58.51
2023-05-22T00:08:38.374Z,58.51
2023-05-22T00:11:06.637Z,58.58
2023-05-22T00:13:34.799Z,58.54
2023-05-22T00:16:03.127Z,58.50
2023-05-22T00:18:31.989Z,58.41
2023-05-22T00:21:00.339Z,58.34
2023-05-22T00:23:30.633Z,58.16
2023-05-22T00:25:59.075Z,58.10
2023-05-22T00:28:28.824Z,57.89
2023-05-22T00:30:57.068Z,57.74
2023-05-22T00:33:25.656Z,57.45
2023-05-22T00:35:53.817Z,57.38
2023-05-22T00:38:33.989Z,57.10
2023-05-22T00:41:03.628Z,57.05
2023-05-22T00:43:31.968Z,56.82
2023-05-22T00:46:00.435Z,56.51
2023-05-22T00:48:28.584Z,56.10
2023-05-22T00:50:59.103Z,55.69
2023-05-22T00:53:30.994Z,55.26
2023-05-22T00:55:59.637Z,55.09
2023-05-22T00:58:27.813Z,54.85
2023-05-22T01:00:56.951Z,54.55
2023-05-22T01:03:25.795Z,54.48
2023-05-22T01:05:55.465Z,54.47
2023-05-22T01:08:23.845Z,54.35
2023-05-22T01:11:02.280Z,54.09
2023-05-22T01:13:41.546Z,54.17
2023-05-22T01:16:20.843Z,54.08
2023-05-22T01:19:17.515Z,53.98
2023-05-22T01:22:04.865Z,53.91
2023-05-22T01:24:39.705Z,53.84
2023-05-22T01:27:23.461Z,53.87
2023-05-22T01:30:18.089Z,53.84
2023-05-22T01:32:48.253Z,53.77
2023-05-22T01:35:18.506Z,53.75
2023-05-22T01:37:48.221Z,53.82
2023-05-22T01:40:17.321Z,53.68
2023-05-22T01:42:46.132Z,53.72
2023-05-22T01:45:14.868Z,53.72
2023-05-22T01:47:43.025Z,53.64
2023-05-22T01:50:12.254Z,53.54
2023-05-22T01:52:54.080Z,53.55
2023-05-22T01:55:46.201Z,53.61
2023-05-22T01:58:47.354Z,53.62
2023-05-22T02:01:19.558Z,53.62
2023-05-22T02:03:50.927Z,53.64
2023-05-22T02:06:20.365Z,53.62
2023-05-22T02:08:51.450Z,53.54
2023-05-22T02:11:23.336Z,53.55
2023-05-22T02:13:52.114Z,53.67
2023-05-22T02:16:20.947Z,53.59
2023-05-22T02:18:49.241Z,53.57
2023-05-22T02:21:17.509Z,53.48
2023-05-22T02:23:45.755Z,53.33
2023-05-22T02:26:13.984Z,53.23
2023-05-22T02:28:42.820Z,53.12
2023-05-22T02:31:11.179Z,52.91
2023-05-22T02:33:39.508Z,52.85
2023-05-22T02:36:08.323Z,52.73
2023-05-22T02:38:37.027Z,52.48
2023-05-22T02:41:05.860Z,52.44
2023-05-22T02:43:34.319Z,52.31
2023-05-22T02:46:02.444Z,52.11
2023-05-22T02:48:30.713Z,51.98
2023-05-22T02:50:59.048Z,51.82
2023-05-22T02:53:27.924Z,51.74
2023-05-22T02:55:56.764Z,51.68
2023-05-22T02:58:25.637Z,51.75
2023-05-22T03:00:53.892Z,51.82
2023-05-22T03:03:23.108Z,51.85
2023-05-22T03:05:51.586Z,51.98
2023-05-22T03:08:21.692Z,52.09
2023-05-22T03:10:50.117Z,52.20
2023-05-22T03:13:18.278Z,52.46
2023-05-22T03:15:46.581Z,52.73
2023-05-22T03:18:14.779Z,53.14
2023-05-22T03:20:43.104Z,53.41
2023-05-22T03:23:12.520Z,53.65
2023-05-22T03:25:41.260Z,53.79
2023-05-22T03:28:09.480Z,53.91
2023-05-22T03:30:37.892Z,53.82
2023-05-22T03:33:06.301Z,53.81
2023-05-22T03:35:34.620Z,53.89
2023-05-22T03:38:02.801Z,53.88
2023-05-22T03:40:31.322Z,53.93
2023-05-22T03:42:59.461Z,53.94
2023-05-22T03:45:27.647Z,53.98
2023-05-22T03:47:55.934Z,53.90
2023-05-22T03:50:24.069Z,53.78
2023-05-22T03:52:52.167Z,53.84
2023-05-22T03:55:20.287Z,53.85
2023-05-22T03:57:48.655Z,53.67
2023-05-22T04:00:17.435Z,53.69
2023-05-22T04:02:46.586Z,53.60
2023-05-22T04:05:15.317Z,53.46
2023-05-22T04:07:43.478Z,53.33
2023-05-22T04:10:12.129Z,53.20
2023-05-22T04:12:40.634Z,53.10
2023-05-22T04:15:09.643Z,53.00
2023-05-22T04:17:40.895Z,52.89
2023-05-22T04:20:09.792Z,52.83
2023-05-22T04:22:37.880Z,52.66
2023-05-22T04:25:06.549Z,52.65
2023-05-22T04:27:34.653Z,52.64
2023-05-22T04:30:04.144Z,52.49
2023-05-22T04:32:33.364Z,52.64
2023-05-22T04:35:01.508Z,52.51
2023-05-22T04:37:29.640Z,52.43
2023-05-22T04:39:58.770Z,52.31
2023-05-22T04:42:27.054Z,52.27
2023-05-22T04:44:55.215Z,52.19
2023-05-22T04:47:23.479Z,52.18
2023-05-22T04:49:52.091Z,52.02
2023-05-22T04:52:20.157Z,51.96
2023-05-22T04:54:48.479Z,51.97
2023-05-22T04:57:16.629Z,51.89
2023-05-22T04:59:44.772Z,52.03
2023-05-22T05:02:13.104Z,52.06
2023-05-22T05:04:41.774Z,52.07
2023-05-22T05:07:10.134Z,52.03
2023-05-22T05:09:38.336Z,52.04
2023-05-22T05:12:06.867Z,51.99
2023-05-22T05:14:35.156Z,51.93
2023-05-22T05:17:03.461Z,51.88
2023-05-22T05:19:31.800Z,51.72
2023-05-22T05:22:00.851Z,51.65
2023-05-22T05:24:29.554Z,51.57
2023-05-22T05:26:57.789Z,51.46
2023-05-22T05:29:25.929Z,51.43
2023-05-22T05:31:54.146Z,51.44
2023-05-22T05:34:22.405Z,51.27
2023-05-22T05:36:50.691Z,51.17
2023-05-22T05:39:19.016Z,51.22
2023-05-22T05:41:47.201Z,51.19
2023-05-22T05:44:15.574Z,51.12
2023-05-22T05:46:44.049Z,51.05
2023-05-22T05:49:12.281Z,50.92
2023-05-22T05:51:40.617Z,50.83
2023-05-22T05:54:08.966Z,50.93
2023-05-22T05:56:37.769Z,50.81
2023-05-22T05:59:05.925Z,50.85
2023-05-22T06:01:35.637Z,50.78
2023-05-22T06:04:04.071Z,50.83
2023-05-22T06:06:32.683Z,50.72
2023-05-22T06:09:01.759Z,50.76
2023-05-22T06:11:29.940Z,50.67
2023-05-22T06:13:58.197Z,50.65
2023-05-22T06:16:26.912Z,50.70
2023-05-22T06:18:56.527Z,50.67
2023-05-22T06:21:24.921Z,50.61
2023-05-22T06:23:53.291Z,50.40
2023-05-22T06:26:21.662Z,50.38
2023-05-22T06:28:49.766Z,50.33
2023-05-22T06:31:18.239Z,50.44
2023-05-22T06:33:46.633Z,50.39
2023-05-22T06:36:14.813Z,50.28
2023-05-22T06:38:43.121Z,50.26
2023-05-22T06:41:11.420Z,50.15
2023-05-22T06:43:40.059Z,50.19
2023-05-22T06:46:08.830Z,50.10
2023-05-22T06:48:37.175Z,50.01
2023-05-22T06:51:05.283Z,50.07
2023-05-22T06:53:33.712Z,50.14
2023-05-22T06:56:01.861Z,50.06
2023-05-22T06:58:29.949Z,49.84
2023-05-22T07:00:58.256Z,49.69
2023-05-22T07:03:26.613Z,49.66
2023-05-22T07:05:55.878Z,49.63
2023-05-22T07:08:24.704Z,49.64
2023-05-22T07:10:52.837Z,49.60
2023-05-22T07:13:20.990Z,49.51
2023-05-22T07:15:49.455Z,49.48
2023-05-22T07:18:17.577Z,49.42
2023-05-22T07:20:45.646Z,49.37
2023-05-22T07:23:13.981Z,49.22
2023-05-22T07:25:43.005Z,49.13
2023-05-22T07:28:11.069Z,48.86
2023-05-22T07:30:39.733Z,49.04
2023-05-22T07:33:08.240Z,49.23
2023-05-22T07:35:36.804Z,49.42
2023-05-22T07:38:04.893Z,49.39
2023-05-22T07:40:33.005Z,49.35
2023-05-22T07:43:01.258Z,49.25
2023-05-22T07:45:29.892Z,49.43
2023-05-22T07:47:58.073Z,49.52
2023-05-22T07:50:26.702Z,49.77
2023-05-22T07:52:55.369Z,49.91
2023-05-22T07:55:23.597Z,49.79
2023-05-22T07:57:51.886Z,49.81
2023-05-22T08:00:20.694Z,49.89
2023-05-22T08:02:49.068Z,50.03
2023-05-22T08:05:17.404Z,50.16
2023-05-22T08:07:45.988Z,50.32
2023-05-22T08:10:17.042Z,50.50
2023-05-22T08:12:46.092Z,50.57
2023-05-22T08:15:14.443Z,50.63
2023-05-22T08:17:42.746Z,50.66
2023-05-22T08:20:11.538Z,50.59
2023-05-22T08:22:40.118Z,50.49
2023-05-22T08:25:08.786Z,50.38
2023-05-22T08:27:36.880Z,50.41
2023-05-22T08:30:05.554Z,50.32
2023-05-22T08:32:35.630Z,50.08
2023-05-22T08:35:04.697Z,50.01
2023-05-22T08:37:32.878Z,49.99
2023-05-22T08:40:01.586Z,49.89
2023-05-22T08:42:30.351Z,49.71
2023-05-22T08:44:58.555Z,49.43
2023-05-22T08:47:26.990Z,49.29
2023-05-22T08:49:57.498Z,48.98
2023-05-22T08:52:33.350Z,48.79
2023-05-22T08:55:04.593Z,48.43
2023-05-22T08:57:34.211Z,48.21
2023-05-22T09:00:02.953Z,47.91
2023-05-22T09:02:32.504Z,47.71
2023-05-22T09:05:01.408Z,47.62
2023-05-22T09:07:30.639Z,47.41
2023-05-22T09:09:59.030Z,47.37
2023-05-22T09:12:27.636Z,47.07
2023-05-22T09:14:55.979Z,46.93
2023-05-22T09:17:26.662Z,47.12
2023-05-22T09:19:55.093Z,47.16
2023-05-22T09:22:24.419Z,47.16
2023-05-22T09:24:52.918Z,47.07
2023-05-22T09:27:23.504Z,47.18
2023-05-22T09:29:53.541Z,47.32
2023-05-22T09:32:22.045Z,47.20
2023-05-22T09:34:51.710Z,47.17
2023-05-22T09:37:20.902Z,47.28
2023-05-22T09:39:49.526Z,47.39
2023-05-22T09:42:18.377Z,47.42
2023-05-22T09:44:50.106Z,47.53
2023-05-22T09:47:18.531Z,47.47
2023-05-22T09:49:48.586Z,47.92
2023-05-22T09:52:19.850Z,48.50
2023-05-22T09:54:52.310Z,48.92
2023-05-22T09:57:21.337Z,49.09
2023-05-22T09:59:52.076Z,49.28
2023-05-22T10:02:24.503Z,49.71
2023-05-22T10:04:53.228Z,50.04
2023-05-22T10:07:37.520Z,50.39
2023-05-22T10:10:09.255Z,50.67
2023-05-22T10:12:43.793Z,50.64
2023-05-22T10:15:12.939Z,50.68
2023-05-22T10:17:41.316Z,50.61
2023-05-22T10:20:11.664Z,50.89
2023-05-22T10:22:48.049Z,51.33
2023-05-22T10:25:18.009Z,51.82
2023-05-22T10:27:46.476Z,52.14
2023-05-22T10:30:29.942Z,52.32
2023-05-22T10:33:26.128Z,52.17
2023-05-22T10:36:17.136Z,51.75
2023-05-22T10:38:57.491Z,51.73
2023-05-22T10:41:26.782Z,51.69
2023-05-22T10:43:57.077Z,51.39
2023-05-22T10:46:25.764Z,50.40
2023-05-22T10:48:55.369Z,50.45
2023-05-22T10:51:25.270Z,49.47
2023-05-22T10:53:59.233Z,48.73
2023-05-22T10:56:34.287Z,47.36
2023-05-22T10:59:04.797Z,46.75
2023-05-22T11:01:34.075Z,45.50
2023-05-22T11:04:11.265Z,45.61
2023-05-22T11:06:40.723Z,46.23
2023-05-22T11:09:28.881Z,46.86
2023-05-22T11:12:28.261Z,47.33
2023-05-22T11:15:06.545Z,48.06
2023-05-22T11:17:43.784Z,48.47
2023-05-22T11:20:25.786Z,47.95
2023-05-22T11:23:02.194Z,47.53
2023-05-22T11:25:33.863Z,47.03
2023-05-22T11:28:06.584Z,45.47
2023-05-22T11:30:35.171Z,45.64
2023-05-22T11:33:05.481Z,44.40
2023-05-22T11:35:34.796Z,43.82
2023-05-22T11:38:05.381Z,43.30
2023-05-22T11:40:33.594Z,42.70
2023-05-22T11:43:02.693Z,42.11
2023-05-22T11:45:30.815Z,42.00
2023-05-22T11:47:59.017Z,42.32
2023-05-22T11:50:41.074Z,42.07
2023-05-22T11:53:11.372Z,41.69
2023-05-22T11:55:39.534Z,42.10
2023-05-22T11:58:07.569Z,42.79
2023-05-22T12:00:35.911Z,42.93
2023-05-22T12:03:04.484Z,42.88
2023-05-22T12:05:33.118Z,43.55
2023-05-22T12:08:01.276Z,44.15
2023-05-22T12:10:29.538Z,44.41
2023-05-22T12:12:58.381Z,44.42
2023-05-22T12:15:27.114Z,44.43
2023-05-22T12:17:56.626Z,44.56
2023-05-22T12:20:29.859Z,44.83
2023-05-22T12:22:58.596Z,45.37
2023-05-22T12:25:36.273Z,45.74
2023-05-22T12:28:06.874Z,46.29
2023-05-22T12:30:42.844Z,46.66
2023-05-22T12:33:15.382Z,46.96
2023-05-22T12:35:43.740Z,46.65
2023-05-22T12:38:11.860Z,46.61
2023-05-22T12:40:40.381Z,46.77
2023-05-22T12:43:08.775Z,47.32
2023-05-22T12:45:36.829Z,47.62
2023-05-22T12:48:05.103Z,47.57
2023-05-22T12:50:33.333Z,48.12
2023-05-22T12:53:02.939Z,48.25
2023-05-22T12:55:31.520Z,48.36
2023-05-22T12:58:00.468Z,48.34
2023-05-22T13:00:28.651Z,48.57
2023-05-22T13:02:57.727Z,48.85
2023-05-22T13:05:26.119Z,49.37
2023-05-22T13:07:54.572Z,49.93
2023-05-22T13:10:23.677Z,50.20
2023-05-22T13:12:52.873Z,50.33
2023-05-22T13:15:21.529Z,50.84
2023-05-22T13:17:49.760Z,50.74
2023-05-22T13:20:17.937Z,50.50
2023-05-22T13:22:46.069Z,50.46
2023-05-22T13:25:15.116Z,50.67
2023-05-22T13:27:43.557Z,50.53
2023-05-22T13:30:12.266Z,50.46
2023-05-22T13:32:40.983Z,51.08
2023-05-22T13:35:09.583Z,51.22
2023-05-22T13:37:38.228Z,51.42
2023-05-22T13:40:07.471Z,51.36
2023-05-22T13:42:36.039Z,51.76
2023-05-22T13:45:05.159Z,52.26
2023-05-22T13:47:33.400Z,52.58
2023-05-22T13:50:01.763Z,52.63
2023-05-22T13:52:29.802Z,52.84
2023-05-22T13:54:58.036Z,53.12
2023-05-22T13:57:26.265Z,53.06
2023-05-22T13:59:54.400Z,53.40
2023-05-22T14:02:22.619Z,53.64
2023-05-22T14:04:51.215Z,53.66
2023-05-22T14:07:19.521Z,53.59
2023-05-22T14:09:47.929Z,53.71
2023-05-22T14:12:16.322Z,53.57
2023-05-22T14:14:44.553Z,53.86
2023-05-22T14:17:12.885Z,53.36
2023-05-22T14:19:40.935Z,53.11
2023-05-22T14:22:09.322Z,53.53
2023-05-22T14:24:37.462Z,53.56
2023-05-22T14:27:06.421Z,53.97
2023-05-22T14:29:34.463Z,54.13
2023-05-22T14:32:04.608Z,54.07
2023-05-22T14:34:32.831Z,53.59
2023-05-22T14:37:01.216Z,53.38
2023-05-22T14:39:29.808Z,53.36
2023-05-22T14:41:57.884Z,53.56
2023-05-22T14:44:26.002Z,53.28
2023-05-22T14:46:54.610Z,53.36
2023-05-22T14:49:24.681Z,53.03
2023-05-22T14:51:52.802Z,53.14
2023-05-22T14:54:21.513Z,53.40
2023-05-22T14:56:50.262Z,53.32
2023-05-22T14:59:18.493Z,53.34
2023-05-22T15:01:47.203Z,53.35
2023-05-22T15:04:19.952Z,53.95
2023-05-22T15:06:48.175Z,54.55
2023-05-22T15:09:16.293Z,54.68
2023-05-22T15:11:44.418Z,54.46
2023-05-22T15:14:12.988Z,54.55
2023-05-22T15:16:41.390Z,55.04
2023-05-22T15:19:10.205Z,54.83
2023-05-22T15:21:41.024Z,55.18
2023-05-22T15:24:09.400Z,55.32
2023-05-22T15:26:38.154Z,55.29
2023-05-22T15:29:07.229Z,55.64
2023-05-22T15:31:35.485Z,55.72
2023-05-22T15:34:03.900Z,55.53
2023-05-22T15:36:35.205Z,55.72
2023-05-22T15:39:03.823Z,55.86
2023-05-22T15:41:31.999Z,55.76
2023-05-22T15:44:00.919Z,55.55
2023-05-22T15:46:29.613Z,55.63
2023-05-22T15:48:57.916Z,55.31
2023-05-22T15:51:26.739Z,55.15
2023-05-22T15:53:55.000Z,55.21
2023-05-22T15:56:23.930Z,55.14
2023-05-22T15:58:52.271Z,55.06
2023-05-22T16:01:20.981Z,55.10
2023-05-22T16:03:49.264Z,55.04
2023-05-22T16:06:17.632Z,54.85
2023-05-22T16:08:45.749Z,54.50
2023-05-22T16:11:13.891Z,54.54
2023-05-22T16:13:43.317Z,54.99
2023-05-22T16:16:12.016Z,55.29
2023-05-22T16:18:40.851Z,55.24
2023-05-22T16:21:09.564Z,55.26
2023-05-22T16:23:38.125Z,55.29
2023-05-22T16:26:07.443Z,55.42
2023-05-22T16:28:36.118Z,55.38
2023-05-22T16:31:04.720Z,55.32
2023-05-22T16:33:32.981Z,55.29
2023-05-22T16:36:01.868Z,55.34
2023-05-22T16:38:30.219Z,55.24
2023-05-22T16:40:59.141Z,55.39
2023-05-22T16:43:27.841Z,55.44
2023-05-22T16:45:56.121Z,55.47
2023-05-22T16:48:25.614Z,55.64
2023-05-22T16:50:54.803Z,55.65
2023-05-22T16:53:23.444Z,55.77
2023-05-22T16:55:52.049Z,56.09
2023-05-22T16:58:20.973Z,56.33
2023-05-22T17:00:49.304Z,56.52
2023-05-22T17:03:17.947Z,56.67
2023-05-22T17:05:46.951Z,56.74
2023-05-22T17:08:15.105Z,56.72
2023-05-22T17:10:43.481Z,56.53
2023-05-22T17:13:11.707Z,56.34
2023-05-22T17:15:40.000Z,56.19
2023-05-22T17:18:08.397Z,56.40
2023-05-22T17:20:36.531Z,56.52
2023-05-22T17:23:05.069Z,56.77
2023-05-22T17:25:33.194Z,56.95
2023-05-22T17:28:01.937Z,56.75
2023-05-22T17:30:30.634Z,56.31
2023-05-22T17:32:58.800Z,56.03
2023-05-22T17:35:27.817Z,55.92
2023-05-22T17:37:56.204Z,55.97
2023-05-22T17:40:43.288Z,56.04
2023-05-22T17:43:14.020Z,55.91
2023-05-22T17:45:42.390Z,55.48
2023-05-22T17:48:13.041Z,55.33
2023-05-22T17:50:43.232Z,55.14
2023-05-22T17:53:11.381Z,55.01
2023-05-22T17:55:40.948Z,54.77
2023-05-22T17:58:09.949Z,54.67
2023-05-22T18:00:38.278Z,54.70
2023-05-22T18:03:06.872Z,54.63
2023-05-22T18:05:36.022Z,54.85
2023-05-22T18:08:04.768Z,55.08
2023-05-22T18:10:32.982Z,55.17
2023-05-22T18:13:01.745Z,55.30
2023-05-22T18:15:30.269Z,55.42
2023-05-22T18:17:59.464Z,55.41
2023-05-22T18:20:27.897Z,55.55
2023-05-22T18:22:56.486Z,56.06
2023-05-22T18:25:25.368Z,57.00
2023-05-22T18:27:54.366Z,57.80
2023-05-22T18:30:23.407Z,58.79
2023-05-22T18:32:52.211Z,59.36
2023-05-22T18:35:22.561Z,59.98
2023-05-22T18:37:54.572Z,60.62
2023-05-22T18:40:22.863Z,61.15
2023-05-22T18:42:51.103Z,61.64
2023-05-22T18:45:19.286Z,61.70
2023-05-22T18:47:48.330Z,62.05
2023-05-22T18:50:16.528Z,62.25
2023-05-22T18:52:44.945Z,62.64
2023-05-22T18:55:13.248Z,62.55
2023-05-22T18:57:42.028Z,62.62
2023-05-22T19:00:10.771Z,62.76
2023-05-22T19:02:39.065Z,62.87
2023-05-22T19:05:07.862Z,63.28
2023-05-22T19:07:36.209Z,63.53
2023-05-22T19:10:07.079Z,63.73
2023-05-22T19:12:36.144Z,63.53
2023-05-22T19:15:05.818Z,63.61
2023-05-22T19:17:35.196Z,63.62
2023-05-22T19:20:04.280Z,63.62
2023-05-22T19:22:32.518Z,63.75
2023-05-22T19:25:01.930Z,63.95
2023-05-22T19:27:32.952Z,63.87
2023-05-22T19:30:01.262Z,63.91
2023-05-22T19:32:29.635Z,64.04
2023-05-22T19:34:57.762Z,64.11
2023-05-22T19:37:26.086Z,64.20
2023-05-22T19:39:54.820Z,64.27
2023-05-22T19:42:23.094Z,64.30
2023-05-22T19:44:51.357Z,64.00
2023-05-22T19:47:20.604Z,64.17
2023-05-22T19:49:49.080Z,64.36
2023-05-22T19:52:17.150Z,64.72
2023-05-22T19:54:45.606Z,64.80
2023-05-22T19:57:13.870Z,64.86
2023-05-22T19:59:41.883Z,64.97
2023-05-22T20:02:10.942Z,64.96
2023-05-22T20:04:40.026Z,65.12
2023-05-22T20:07:08.165Z,64.72
2023-05-22T20:09:36.867Z,64.62
2023-05-22T20:12:07.686Z,64.54
2023-05-22T20:14:36.499Z,64.57
2023-05-22T20:17:05.730Z,64.83
2023-05-22T20:19:34.781Z,64.98
2023-05-22T20:22:04.697Z,65.07
2023-05-22T20:24:33.550Z,65.26
2023-05-22T20:27:02.846Z,65.43
2023-05-22T20:29:30.961Z,65.53
2023-05-22T20:32:01.167Z,65.43
2023-05-22T20:34:29.490Z,65.47
2023-05-22T20:36:57.807Z,65.25
2023-05-22T20:39:27.012Z,65.11
2023-05-22T20:41:56.357Z,65.05
2023-05-22T20:44:25.137Z,64.97
2023-05-22T20:46:54.369Z,64.78
2023-05-22T20:49:24.620Z,64.37
2023-05-22T20:51:53.427Z,64.18
2023-05-22T20:54:23.534Z,64.30
2023-05-22T20:56:52.800Z,64.01
2023-05-22T20:59:22.169Z,63.80
2023-05-22T21:01:50.296Z,63.84
2023-05-22T21:04:20.401Z,63.65
2023-05-22T21:06:49.600Z,63.60
2023-05-22T21:09:18.715Z,63.50
2023-05-22T21:11:48.001Z,63.42
2023-05-22T21:14:17.102Z,63.33
2023-05-22T21:16:45.239Z,63.25
2023-05-22T21:19:13.472Z,63.19
2023-05-22T21:21:41.938Z,62.91
2023-05-22T21:24:10.685Z,62.78
2023-05-22T21:26:39.072Z,62.67
2023-05-22T21:29:07.429Z,62.46
2023-05-22T21:31:35.974Z,62.47
2023-05-22T21:34:04.769Z,62.33
2023-05-22T21:36:33.102Z,62.13
2023-05-22T21:39:01.638Z,62.07
2023-05-22T21:41:29.945Z,61.60
2023-05-22T21:43:58.527Z,61.35
2023-05-22T21:46:27.264Z,61.11
2023-05-22T21:48:55.940Z,60.96
2023-05-22T21:51:24.174Z,60.77
2023-05-22T21:53:53.141Z,60.46
2023-05-22T21:56:21.787Z,60.13
2023-05-22T21:58:50.200Z,59.94
2023-05-22T22:01:18.475Z,59.60
2023-05-22T22:03:46.666Z,59.33
2023-05-22T22:06:15.320Z,59.07
2023-05-22T22:08:44.020Z,58.89
2023-05-22T22:11:12.271Z,58.63
2023-05-22T22:13:41.115Z,58.48
2023-05-22T22:16:09.371Z,58.25
2023-05-22T22:18:37.607Z,58.15
2023-05-22T22:21:05.748Z,58.00
2023-05-22T22:23:35.549Z,57.84
2023-05-22T22:26:04.097Z,57.67
2023-05-22T22:28:32.761Z,57.61
2023-05-22T22:31:00.949Z,57.49
2023-05-22T22:33:29.651Z,57.41
2023-05-22T22:35:58.412Z,57.33
2023-05-22T22:38:26.535Z,57.25
2023-05-22T22:40:55.437Z,57.08
2023-05-22T22:43:23.749Z,57.07
2023-05-22T22:45:52.190Z,57.22
2023-05-22T22:48:20.538Z,57.20
2023-05-22T22:50:49.954Z,57.22
2023-05-22T22:53:19.296Z,57.36
2023-05-22T22:55:48.110Z,57.37
2023-05-22T22:58:16.912Z,57.36
2023-05-22T23:00:47.563Z,57.31
2023-05-22T23:03:15.810Z,57.28
2023-05-22T23:05:44.853Z,57.16
2023-05-22T23:08:13.955Z,57.19
2023-05-22T23:10:43.185Z,57.25
2023-05-22T23:13:11.881Z,57.37
2023-05-22T23:15:41.655Z,57.57
2023-05-22T23:18:10.623Z,57.65
2023-05-22T23:20:38.892Z,57.83
2023-05-22T23:23:08.280Z,57.86
2023-05-22T23:25:37.916Z,57.90
2023-05-22T23:28:07.399Z,58.06
2023-05-22T23:30:36.063Z,58.31
2023-05-22T23:33:04.466Z,58.64
2023-05-22T23:35:33.486Z,58.83
2023-05-22T23:38:01.831Z,59.06
2023-05-22T23:40:30.311Z,59.18
2023-05-22T23:42:58.378Z,59.54
2023-05-22T23:45:27.318Z,59.64
2023-05-22T23:47:57.073Z,59.77
2023-05-22T23:50:25.555Z,59.94
2023-05-22T23:52:53.758Z,59.96
2023-05-22T23:55:23.012Z,60.20
2023-05-22T23:57:51.180Z,60.13
